sensor_id;sensor_type;location;lat;lon;timestamp;pressure;altitude;pressure_sealevel;temperature;humidity
4745;BME280;2386;42.138;24.746;2022-11-18T00:00:25;98584.88;;;11.13;100.00
4745;BME280;2386;42.138;24.746;2022-11-18T00:02:50;98571.56;;;11.12;100.00
4745;BME280;2386;42.138;24.746;2022-11-18T00:05:15;98582.19;;;11.18;100.00
4745;BME280;2386;42.138;24.746;2022-11-18T00:07:41;98578.19;;;11.31;100.00
4745;BME280;2386;42.138;24.746;2022-11-18T00:10:06;98573.47;;;11.16;100.00
4745;BME280;2386;42.138;24.746;2022-11-18T00:12:31;98573.22;;;11.13;100.00
4745;BME280;2386;42.138;24.746;2022-11-18T00:15:16;98570.75;;;11.16;100.00
4745;BME280;2386;42.138;24.746;2022-11-18T00:17:41;98566.53;;;11.31;100.00
4745;BME280;2386;42.138;24.746;2022-11-18T00:20:07;98577.81;;;11.12;100.00
4745;BME280;2386;42.138;24.746;2022-11-18T00:22:32;98580.09;;;10.94;100.00
4745;BME280;2386;42.138;24.746;2022-11-18T00:24:57;98586.75;;;11.08;100.00
4745;BME280;2386;42.138;24.746;2022-11-18T00:27:23;98579.50;;;10.86;100.00
4745;BME280;2386;42.138;24.746;2022-11-18T00:29:48;98579.94;;;10.73;100.00
4745;BME280;2386;42.138;24.746;2022-11-18T00:32:14;98583.94;;;10.66;100.00
4745;BME280;2386;42.138;24.746;2022-11-18T00:34:39;98584.84;;;10.76;100.00
4745;BME280;2386;42.138;24.746;2022-11-18T00:37:06;98579.63;;;10.70;100.00
4745;BME280;2386;42.138;24.746;2022-11-18T00:39:32;98575.63;;;10.50;100.00
4745;BME280;2386;42.138;24.746;2022-11-18T00:41:57;98580.09;;;10.62;100.00
4745;BME280;2386;42.138;24.746;2022-11-18T00:44:41;98580.25;;;10.50;100.00
4745;BME280;2386;42.138;24.746;2022-11-18T00:47:06;98575.25;;;10.37;100.00
4745;BME280;2386;42.138;24.746;2022-11-18T00:49:32;98587.59;;;10.54;100.00
4745;BME280;2386;42.138;24.746;2022-11-18T00:51:57;98580.09;;;10.62;100.00
4745;BME280;2386;42.138;24.746;2022-11-18T00:54:22;98583.72;;;10.45;100.00
4745;BME280;2386;42.138;24.746;2022-11-18T00:56:48;98578.41;;;10.56;100.00
4745;BME280;2386;42.138;24.746;2022-11-18T00:59:14;98574.63;;;10.57;100.00
4745;BME280;2386;42.138;24.746;2022-11-18T01:01:39;98576.47;;;10.51;100.00
4745;BME280;2386;42.138;24.746;2022-11-18T01:04:04;98579.44;;;10.49;100.00
4745;BME280;2386;42.138;24.746;2022-11-18T01:06:30;98600.09;;;10.56;100.00
4745;BME280;2386;42.138;24.746;2022-11-18T01:08:55;98598.44;;;10.54;100.00
4745;BME280;2386;42.138;24.746;2022-11-18T01:11:21;98590.88;;;10.57;100.00
4745;BME280;2386;42.138;24.746;2022-11-18T01:14:05;98594.56;;;10.45;100.00
4745;BME280;2386;42.138;24.746;2022-11-18T01:16:30;98584.22;;;10.42;100.00
4745;BME280;2386;42.138;24.746;2022-11-18T01:18:55;98579.47;;;10.54;100.00
4745;BME280;2386;42.138;24.746;2022-11-18T01:21:21;98576.81;;;10.60;100.00
4745;BME280;2386;42.138;24.746;2022-11-18T01:23:47;98578.81;;;10.69;100.00
4745;BME280;2386;42.138;24.746;2022-11-18T01:26:14;98570.94;;;10.68;100.00
4745;BME280;2386;42.138;24.746;2022-11-18T01:28:39;98580.53;;;10.80;100.00
4745;BME280;2386;42.138;24.746;2022-11-18T01:31:08;98571.78;;;10.73;100.00
4745;BME280;2386;42.138;24.746;2022-11-18T01:33:33;98573.22;;;10.81;100.00
4745;BME280;2386;42.138;24.746;2022-11-18T01:35:59;98564.59;;;10.89;100.00
4745;BME280;2386;42.138;24.746;2022-11-18T01:38:24;98566.66;;;10.77;100.00
4745;BME280;2386;42.138;24.746;2022-11-18T01:40:49;98564.56;;;10.84;100.00
4745;BME280;2386;42.138;24.746;2022-11-18T01:43:17;98570.59;;;10.91;100.00
4745;BME280;2386;42.138;24.746;2022-11-18T01:45:45;98575.19;;;10.91;100.00
4745;BME280;2386;42.138;24.746;2022-11-18T01:48:25;98563.56;;;10.95;100.00
4745;BME280;2386;42.138;24.746;2022-11-18T01:51:00;98573.31;;;10.91;100.00
4745;BME280;2386;42.138;24.746;2022-11-18T01:53:33;98577.34;;;10.89;100.00
4745;BME280;2386;42.138;24.746;2022-11-18T01:56:03;98576.31;;;10.95;100.00
4745;BME280;2386;42.138;24.746;2022-11-18T01:58:36;98584.06;;;10.81;100.00
4745;BME280;2386;42.138;24.746;2022-11-18T02:01:04;98577.66;;;10.92;100.00
4745;BME280;2386;42.138;24.746;2022-11-18T02:03:31;98578.25;;;10.99;100.00
4745;BME280;2386;42.138;24.746;2022-11-18T02:05:58;98561.06;;;10.89;100.00
4745;BME280;2386;42.138;24.746;2022-11-18T02:08:24;98568.75;;;10.97;100.00
4745;BME280;2386;42.138;24.746;2022-11-18T02:10:50;98567.41;;;10.99;100.00
4745;BME280;2386;42.138;24.746;2022-11-18T02:13:16;98573.47;;;11.16;100.00
4745;BME280;2386;42.138;24.746;2022-11-18T02:18:55;98567.63;;;10.93;100.00
4745;BME280;2386;42.138;24.746;2022-11-18T02:27:06;98574.66;;;10.89;100.00
4745;BME280;2386;42.138;24.746;2022-11-18T02:30:03;98566.56;;;10.67;100.00
4745;BME280;2386;42.138;24.746;2022-11-18T02:35:26;98559.56;;;10.71;100.00
4745;BME280;2386;42.138;24.746;2022-11-18T02:40:24;98556.44;;;10.84;100.00
4745;BME280;2386;42.138;24.746;2022-11-18T02:43:13;98558.53;;;10.77;100.00
4745;BME280;2386;42.138;24.746;2022-11-18T02:45:44;98561.00;;;10.78;100.00
4745;BME280;2386;42.138;24.746;2022-11-18T02:48:12;98557.72;;;10.76;100.00
4745;BME280;2386;42.138;24.746;2022-11-18T02:50:41;98556.28;;;10.69;100.00
4745;BME280;2386;42.138;24.746;2022-11-18T02:53:07;98545.50;;;10.74;100.00
4745;BME280;2386;42.138;24.746;2022-11-18T02:55:36;98545.75;;;10.72;100.00
4745;BME280;2386;42.138;24.746;2022-11-18T02:58:04;98538.22;;;10.79;100.00
4745;BME280;2386;42.138;24.746;2022-11-18T03:00:31;98552.81;;;10.73;100.00
4745;BME280;2386;42.138;24.746;2022-11-18T03:02:56;98554.50;;;10.79;100.00
4745;BME280;2386;42.138;24.746;2022-11-18T03:08:06;98558.31;;;10.83;100.00
4745;BME280;2386;42.138;24.746;2022-11-18T03:10:39;98571.72;;;10.95;100.00
4745;BME280;2386;42.138;24.746;2022-11-18T03:13:26;98555.72;;;10.99;100.00
4745;BME280;2386;42.138;24.746;2022-11-18T03:15:58;98560.03;;;10.95;100.00
4745;BME280;2386;42.138;24.746;2022-11-18T03:18:47;98561.28;;;10.82;100.00
4745;BME280;2386;42.138;24.746;2022-11-18T03:21:42;98559.06;;;10.74;100.00
4745;BME280;2386;42.138;24.746;2022-11-18T03:26:50;98552.59;;;10.80;100.00
4745;BME280;2386;42.138;24.746;2022-11-18T03:29:28;98552.91;;;10.83;100.00
4745;BME280;2386;42.138;24.746;2022-11-18T03:32:14;98566.81;;;10.92;100.00
4745;BME280;2386;42.138;24.746;2022-11-18T03:34:46;98564.09;;;10.92;100.00
4745;BME280;2386;42.138;24.746;2022-11-18T03:37:15;98569.31;;;10.99;100.00
4745;BME280;2386;42.138;24.746;2022-11-18T03:39:46;98575.59;;;11.04;100.00
4745;BME280;2386;42.138;24.746;2022-11-18T03:42:19;98575.59;;;11.04;100.00
4745;BME280;2386;42.138;24.746;2022-11-18T03:44:51;98574.47;;;11.00;100.00
4745;BME280;2386;42.138;24.746;2022-11-18T03:47:40;98583.47;;;11.06;100.00
4745;BME280;2386;42.138;24.746;2022-11-18T03:50:16;98584.84;;;11.08;100.00
4745;BME280;2386;42.138;24.746;2022-11-18T03:52:45;98594.06;;;11.07;100.00
4745;BME280;2386;42.138;24.746;2022-11-18T03:55:16;98598.63;;;11.02;100.00
4745;BME280;2386;42.138;24.746;2022-11-18T03:58:12;98612.25;;;11.07;100.00
4745;BME280;2386;42.138;24.746;2022-11-18T04:00:43;98595.06;;;10.96;100.00
4745;BME280;2386;42.138;24.746;2022-11-18T04:03:10;98596.75;;;11.02;100.00
4745;BME280;2386;42.138;24.746;2022-11-18T04:05:39;98589.84;;;10.90;100.00
4745;BME280;2386;42.138;24.746;2022-11-18T04:08:10;98605.66;;;10.98;100.00
4745;BME280;2386;42.138;24.746;2022-11-18T04:10:41;98606.34;;;10.83;100.00
4745;BME280;2386;42.138;24.746;2022-11-18T04:13:17;98610.31;;;11.02;100.00
4745;BME280;2386;42.138;24.746;2022-11-18T04:15:45;98602.41;;;11.01;100.00
4745;BME280;2386;42.138;24.746;2022-11-18T04:18:11;98598.41;;;11.08;100.00
4745;BME280;2386;42.138;24.746;2022-11-18T04:20:37;98608.94;;;11.00;100.00
4745;BME280;2386;42.138;24.746;2022-11-18T04:23:03;98608.75;;;11.11;100.00
4745;BME280;2386;42.138;24.746;2022-11-18T04:25:29;98615.00;;;11.12;100.00
4745;BME280;2386;42.138;24.746;2022-11-18T04:27:56;98614.59;;;10.98;100.00
4745;BME280;2386;42.138;24.746;2022-11-18T04:30:21;98607.78;;;10.64;100.00
4745;BME280;2386;42.138;24.746;2022-11-18T04:32:47;98606.53;;;10.49;100.00
4745;BME280;2386;42.138;24.746;2022-11-18T04:35:13;98602.66;;;10.18;100.00
4745;BME280;2386;42.138;24.746;2022-11-18T04:37:39;98607.41;;;10.28;100.00
4745;BME280;2386;42.138;24.746;2022-11-18T04:40:04;98606.44;;;10.17;100.00
4745;BME280;2386;42.138;24.746;2022-11-18T04:42:30;98615.34;;;10.35;100.00
4745;BME280;2386;42.138;24.746;2022-11-18T04:44:55;98606.72;;;10.43;100.00
4745;BME280;2386;42.138;24.746;2022-11-18T04:47:21;98608.06;;;10.40;100.00
4745;BME280;2386;42.138;24.746;2022-11-18T04:49:46;98620.16;;;10.54;100.00
4745;BME280;2386;42.138;24.746;2022-11-18T04:52:12;98624.56;;;10.61;100.00
4745;BME280;2386;42.138;24.746;2022-11-18T04:54:38;98615.84;;;10.59;100.00
4745;BME280;2386;42.138;24.746;2022-11-18T04:57:03;98616.47;;;10.66;100.00
4745;BME280;2386;42.138;24.746;2022-11-18T04:59:29;98617.22;;;10.61;100.00
4745;BME280;2386;42.138;24.746;2022-11-18T05:01:55;98620.25;;;10.65;100.00
4745;BME280;2386;42.138;24.746;2022-11-18T05:04:26;98615.66;;;10.65;100.00
4745;BME280;2386;42.138;24.746;2022-11-18T05:06:52;98612.63;;;10.62;100.00
4745;BME280;2386;42.138;24.746;2022-11-18T05:09:19;98606.06;;;10.58;100.00
4745;BME280;2386;42.138;24.746;2022-11-18T05:11:45;98608.84;;;10.63;100.00
4745;BME280;2386;42.138;24.746;2022-11-18T05:14:29;98615.34;;;10.62;100.00
4745;BME280;2386;42.138;24.746;2022-11-18T05:16:56;98595.38;;;10.73;100.00
4745;BME280;2386;42.138;24.746;2022-11-18T05:19:22;98593.19;;;10.70;100.00
4745;BME280;2386;42.138;24.746;2022-11-18T05:21:48;98601.31;;;10.70;100.00
4745;BME280;2386;42.138;24.746;2022-11-18T05:24:14;98606.66;;;10.60;100.00
4745;BME280;2386;42.138;24.746;2022-11-18T05:26:39;98598.81;;;10.63;100.00
4745;BME280;2386;42.138;24.746;2022-11-18T05:29:05;98616.16;;;10.89;100.00
4745;BME280;2386;42.138;24.746;2022-11-18T05:31:30;98599.03;;;10.57;100.00
4745;BME280;2386;42.138;24.746;2022-11-18T05:33:56;98605.50;;;10.56;100.00
4745;BME280;2386;42.138;24.746;2022-11-18T05:36:22;98612.78;;;10.50;100.00
4745;BME280;2386;42.138;24.746;2022-11-18T05:38:48;98607.22;;;10.62;100.00
4745;BME280;2386;42.138;24.746;2022-11-18T05:41:14;98618.38;;;10.65;100.00
4745;BME280;2386;42.138;24.746;2022-11-18T05:44:00;98630.84;;;10.66;100.00
4745;BME280;2386;42.138;24.746;2022-11-18T05:46:26;98621.38;;;10.69;100.00
4745;BME280;2386;42.138;24.746;2022-11-18T05:48:52;98619.13;;;10.88;100.00
4745;BME280;2386;42.138;24.746;2022-11-18T05:51:17;98629.16;;;10.87;100.00
4745;BME280;2386;42.138;24.746;2022-11-18T05:53:43;98638.50;;;11.01;100.00
4745;BME280;2386;42.138;24.746;2022-11-18T05:56:21;98634.47;;;11.04;100.00
4745;BME280;2386;42.138;24.746;2022-11-18T05:58:48;98626.94;;;11.11;100.00
4745;BME280;2386;42.138;24.746;2022-11-18T06:01:18;98629.84;;;11.04;100.00
4745;BME280;2386;42.138;24.746;2022-11-18T06:03:45;98636.06;;;10.73;100.00
4745;BME280;2386;42.138;24.746;2022-11-18T06:06:12;98636.00;;;10.41;100.00
4745;BME280;2386;42.138;24.746;2022-11-18T06:08:43;98632.84;;;10.05;100.00
4745;BME280;2386;42.138;24.746;2022-11-18T06:11:13;98642.66;;;10.28;100.00
4745;BME280;2386;42.138;24.746;2022-11-18T06:13:45;98648.59;;;10.52;100.00
4745;BME280;2386;42.138;24.746;2022-11-18T06:16:16;98652.78;;;10.65;100.00
4745;BME280;2386;42.138;24.746;2022-11-18T06:18:44;98646.91;;;10.73;100.00
4745;BME280;2386;42.138;24.746;2022-11-18T06:21:10;98640.94;;;10.71;100.00
4745;BME280;2386;42.138;24.746;2022-11-18T06:23:36;98642.66;;;10.82;100.00
4745;BME280;2386;42.138;24.746;2022-11-18T06:26:03;98638.22;;;10.71;100.00
4745;BME280;2386;42.138;24.746;2022-11-18T06:28:29;98632.47;;;10.40;100.00
4745;BME280;2386;42.138;24.746;2022-11-18T06:30:55;98627.81;;;10.36;100.00
4745;BME280;2386;42.138;24.746;2022-11-18T06:33:20;98628.34;;;10.33;100.00
4745;BME280;2386;42.138;24.746;2022-11-18T06:35:45;98629.91;;;10.29;100.00
4745;BME280;2386;42.138;24.746;2022-11-18T06:38:11;98640.09;;;10.00;100.00
4745;BME280;2386;42.138;24.746;2022-11-18T06:40:36;98630.19;;;10.10;100.00
4745;BME280;2386;42.138;24.746;2022-11-18T06:43:09;98632.81;;;10.22;100.00
4745;BME280;2386;42.138;24.746;2022-11-18T06:45:58;98647.81;;;10.30;100.00
4745;BME280;2386;42.138;24.746;2022-11-18T06:48:42;98629.03;;;10.50;100.00
4745;BME280;2386;42.138;24.746;2022-11-18T06:51:07;98633.81;;;10.65;100.00
4745;BME280;2386;42.138;24.746;2022-11-18T06:53:34;98633.25;;;10.63;100.00
4745;BME280;2386;42.138;24.746;2022-11-18T06:56:07;98636.56;;;10.70;100.00
4745;BME280;2386;42.138;24.746;2022-11-18T06:58:33;98642.72;;;10.87;100.00
4745;BME280;2386;42.138;24.746;2022-11-18T07:01:19;98635.50;;;10.98;100.00
4745;BME280;2386;42.138;24.746;2022-11-18T07:03:49;98624.50;;;10.82;100.00
4745;BME280;2386;42.138;24.746;2022-11-18T07:06:23;98630.06;;;10.98;100.00
4745;BME280;2386;42.138;24.746;2022-11-18T07:08:49;98629.81;;;10.99;100.00
4745;BME280;2386;42.138;24.746;2022-11-18T07:11:20;98622.03;;;11.08;100.00
4745;BME280;2386;42.138;24.746;2022-11-18T07:13:46;98625.31;;;11.15;100.00
4745;BME280;2386;42.138;24.746;2022-11-18T07:16:17;98611.22;;;11.18;100.00
4745;BME280;2386;42.138;24.746;2022-11-18T07:18:45;98605.09;;;11.33;100.00
4745;BME280;2386;42.138;24.746;2022-11-18T07:21:17;98613.88;;;11.45;100.00
4745;BME280;2386;42.138;24.746;2022-11-18T07:23:44;98619.38;;;11.55;100.00
4745;BME280;2386;42.138;24.746;2022-11-18T07:26:10;98616.09;;;11.53;100.00
4745;BME280;2386;42.138;24.746;2022-11-18T07:28:36;98620.28;;;11.71;100.00
4745;BME280;2386;42.138;24.746;2022-11-18T07:31:17;98609.97;;;12.30;100.00
4745;BME280;2386;42.138;24.746;2022-11-18T07:33:44;98628.31;;;12.86;100.00
4745;BME280;2386;42.138;24.746;2022-11-18T07:36:18;98628.88;;;13.03;100.00
4745;BME280;2386;42.138;24.746;2022-11-18T07:38:44;98632.94;;;12.85;100.00
4745;BME280;2386;42.138;24.746;2022-11-18T07:41:21;98632.34;;;12.47;100.00
4745;BME280;2386;42.138;24.746;2022-11-18T07:43:48;98634.78;;;12.49;100.00
4745;BME280;2386;42.138;24.746;2022-11-18T07:48:47;98649.25;;;12.60;100.00
4745;BME280;2386;42.138;24.746;2022-11-18T07:51:14;98653.03;;;12.54;100.00
4745;BME280;2386;42.138;24.746;2022-11-18T07:53:40;98650.03;;;12.50;100.00
4745;BME280;2386;42.138;24.746;2022-11-18T07:56:06;98637.28;;;12.71;100.00
4745;BME280;2386;42.138;24.746;2022-11-18T07:58:32;98632.09;;;12.69;100.00
4745;BME280;2386;42.138;24.746;2022-11-18T08:00:58;98642.13;;;12.43;100.00
4745;BME280;2386;42.138;24.746;2022-11-18T08:03:25;98640.66;;;12.21;100.00
4745;BME280;2386;42.138;24.746;2022-11-18T08:05:52;98628.81;;;11.84;100.00
4745;BME280;2386;42.138;24.746;2022-11-18T08:08:17;98626.78;;;11.65;100.00
4745;BME280;2386;42.138;24.746;2022-11-18T08:10:43;98611.56;;;11.27;100.00
4745;BME280;2386;42.138;24.746;2022-11-18T08:13:08;98623.03;;;11.34;100.00
4745;BME280;2386;42.138;24.746;2022-11-18T08:15:33;98617.28;;;11.30;100.00
4745;BME280;2386;42.138;24.746;2022-11-18T08:17:59;98627.53;;;11.23;100.00
4745;BME280;2386;42.138;24.746;2022-11-18T08:20:24;98632.16;;;11.23;100.00
4745;BME280;2386;42.138;24.746;2022-11-18T08:22:52;98626.88;;;11.43;100.00
4745;BME280;2386;42.138;24.746;2022-11-18T08:25:17;98631.31;;;11.54;100.00
4745;BME280;2386;42.138;24.746;2022-11-18T08:27:43;98634.53;;;11.83;100.00
4745;BME280;2386;42.138;24.746;2022-11-18T08:30:08;98623.91;;;11.81;100.00
4745;BME280;2386;42.138;24.746;2022-11-18T08:32:34;98615.22;;;11.79;100.00
4745;BME280;2386;42.138;24.746;2022-11-18T08:34:59;98627.03;;;11.63;100.00
4745;BME280;2386;42.138;24.746;2022-11-18T08:37:25;98625.72;;;11.71;100.00
4745;BME280;2386;42.138;24.746;2022-11-18T08:39:50;98630.72;;;11.84;100.00
4745;BME280;2386;42.138;24.746;2022-11-18T08:42:15;98633.19;;;11.86;100.00
4745;BME280;2386;42.138;24.746;2022-11-18T08:44:41;98628.91;;;12.05;100.00
4745;BME280;2386;42.138;24.746;2022-11-18T08:47:06;98633.75;;;11.98;100.00
4745;BME280;2386;42.138;24.746;2022-11-18T08:49:32;98628.34;;;12.03;100.00
4745;BME280;2386;42.138;24.746;2022-11-18T08:51:57;98637.66;;;12.17;100.00
4745;BME280;2386;42.138;24.746;2022-11-18T08:54:22;98626.75;;;12.12;100.00
4745;BME280;2386;42.138;24.746;2022-11-18T08:56:48;98620.25;;;12.13;100.00
4745;BME280;2386;42.138;24.746;2022-11-18T08:59:15;98623.81;;;12.24;100.00
4745;BME280;2386;42.138;24.746;2022-11-18T09:01:40;98633.03;;;12.17;100.00
4745;BME280;2386;42.138;24.746;2022-11-18T09:04:07;98618.03;;;12.05;100.00
4745;BME280;2386;42.138;24.746;2022-11-18T09:06:33;98610.00;;;12.40;100.00
4745;BME280;2386;42.138;24.746;2022-11-18T09:08:59;98614.94;;;12.54;100.00
4745;BME280;2386;42.138;24.746;2022-11-18T09:11:26;98581.75;;;12.67;100.00
4745;BME280;2386;42.138;24.746;2022-11-18T09:13:56;98589.94;;;12.72;100.00
4745;BME280;2386;42.138;24.746;2022-11-18T09:16:23;98594.28;;;12.68;100.00
4745;BME280;2386;42.138;24.746;2022-11-18T09:18:49;98580.94;;;12.56;100.00
4745;BME280;2386;42.138;24.746;2022-11-18T09:21:15;98577.97;;;12.78;100.00
4745;BME280;2386;42.138;24.746;2022-11-18T09:23:41;98580.41;;;12.69;100.00
4745;BME280;2386;42.138;24.746;2022-11-18T09:26:09;98568.44;;;12.75;100.00
4745;BME280;2386;42.138;24.746;2022-11-18T09:28:35;98555.94;;;13.00;100.00
4745;BME280;2386;42.138;24.746;2022-11-18T09:31:05;98572.25;;;13.05;100.00
4745;BME280;2386;42.138;24.746;2022-11-18T09:33:32;98569.53;;;12.69;100.00
4745;BME280;2386;42.138;24.746;2022-11-18T09:35:57;98560.56;;;12.94;100.00
4745;BME280;2386;42.138;24.746;2022-11-18T09:38:23;98555.38;;;13.08;100.00
4745;BME280;2386;42.138;24.746;2022-11-18T09:40:57;98542.88;;;13.07;100.00
4745;BME280;2386;42.138;24.746;2022-11-18T09:43:39;98548.34;;;13.17;100.00
4745;BME280;2386;42.138;24.746;2022-11-18T09:48:44;98540.69;;;13.14;100.00
4745;BME280;2386;42.138;24.746;2022-11-18T09:51:32;98526.28;;;13.24;100.00
4745;BME280;2386;42.138;24.746;2022-11-18T09:54:01;98513.72;;;13.33;100.00
4745;BME280;2386;42.138;24.746;2022-11-18T09:56:27;98505.84;;;13.16;100.00
4745;BME280;2386;42.138;24.746;2022-11-18T09:58:53;98510.75;;;12.94;100.00
4745;BME280;2386;42.138;24.746;2022-11-18T10:01:20;98510.19;;;13.27;100.00
4745;BME280;2386;42.138;24.746;2022-11-18T10:03:46;98510.97;;;13.38;100.00
4745;BME280;2386;42.138;24.746;2022-11-18T10:06:24;98513.13;;;13.46;100.00
4745;BME280;2386;42.138;24.746;2022-11-18T10:12:11;98512.09;;;13.27;100.00
4745;BME280;2386;42.138;24.746;2022-11-18T10:15:02;98508.78;;;13.40;100.00
4745;BME280;2386;42.138;24.746;2022-11-18T10:17:42;98503.88;;;13.42;100.00
4745;BME280;2386;42.138;24.746;2022-11-18T10:23:16;98495.66;;;13.52;100.00
4745;BME280;2386;42.138;24.746;2022-11-18T10:25:43;98503.53;;;13.59;100.00
4745;BME280;2386;42.138;24.746;2022-11-18T10:28:21;98500.78;;;13.69;100.00
4745;BME280;2386;42.138;24.746;2022-11-18T10:30:47;98489.66;;;13.55;100.00
4745;BME280;2386;42.138;24.746;2022-11-18T10:33:22;98464.09;;;13.46;100.00
4745;BME280;2386;42.138;24.746;2022-11-18T10:36:27;98464.06;;;13.51;100.00
4745;BME280;2386;42.138;24.746;2022-11-18T10:39:11;98455.81;;;13.71;100.00
4745;BME280;2386;42.138;24.746;2022-11-18T10:41:40;98467.28;;;13.68;100.00
4745;BME280;2386;42.138;24.746;2022-11-18T10:44:33;98460.41;;;13.81;100.00
4745;BME280;2386;42.138;24.746;2022-11-18T10:49:50;98458.19;;;13.88;100.00
4745;BME280;2386;42.138;24.746;2022-11-18T10:52:16;98447.31;;;13.83;100.00
4745;BME280;2386;42.138;24.746;2022-11-18T10:54:41;98461.13;;;13.97;100.00
4745;BME280;2386;42.138;24.746;2022-11-18T10:57:14;98465.50;;;13.98;100.00
4745;BME280;2386;42.138;24.746;2022-11-18T10:59:50;98469.34;;;13.92;100.00
4745;BME280;2386;42.138;24.746;2022-11-18T11:02:39;98455.47;;;13.88;100.00
4745;BME280;2386;42.138;24.746;2022-11-18T11:05:19;98451.38;;;13.86;100.00
4745;BME280;2386;42.138;24.746;2022-11-18T11:08:03;98453.84;;;13.82;100.00
4745;BME280;2386;42.138;24.746;2022-11-18T11:10:29;98454.69;;;13.77;100.00
4745;BME280;2386;42.138;24.746;2022-11-18T11:13:09;98447.38;;;13.68;100.00
4745;BME280;2386;42.138;24.746;2022-11-18T11:18:05;98436.16;;;13.79;100.00
4745;BME280;2386;42.138;24.746;2022-11-18T11:20:53;98431.25;;;13.76;100.00
4745;BME280;2386;42.138;24.746;2022-11-18T11:23:18;98425.50;;;13.83;100.00
4745;BME280;2386;42.138;24.746;2022-11-18T11:25:56;98433.91;;;13.92;100.00
4745;BME280;2386;42.138;24.746;2022-11-18T11:28:40;98430.38;;;13.91;100.00
4745;BME280;2386;42.138;24.746;2022-11-18T11:36:50;98408.22;;;14.03;100.00
4745;BME280;2386;42.138;24.746;2022-11-18T11:44:39;98427.66;;;14.25;100.00
4745;BME280;2386;42.138;24.746;2022-11-18T11:47:20;98409.59;;;14.34;100.00
4745;BME280;2386;42.138;24.746;2022-11-18T11:52:59;98401.09;;;14.07;100.00
4745;BME280;2386;42.138;24.746;2022-11-18T12:02:14;98369.31;;;14.21;100.00
4745;BME280;2386;42.138;24.746;2022-11-18T12:05:37;98379.06;;;14.32;100.00
4745;BME280;2386;42.138;24.746;2022-11-18T12:08:19;98387.19;;;14.42;100.00
4745;BME280;2386;42.138;24.746;2022-11-18T12:14:02;98382.56;;;14.72;100.00
4745;BME280;2386;42.138;24.746;2022-11-18T12:19:14;98385.69;;;15.08;100.00
4745;BME280;2386;42.138;24.746;2022-11-18T12:26:47;98383.31;;;15.01;100.00
4745;BME280;2386;42.138;24.746;2022-11-18T12:29:22;98386.84;;;15.02;100.00
4745;BME280;2386;42.138;24.746;2022-11-18T12:31:53;98378.09;;;15.05;100.00
4745;BME280;2386;42.138;24.746;2022-11-18T12:34:41;98377.44;;;15.13;100.00
4745;BME280;2386;42.138;24.746;2022-11-18T12:42:38;98367.59;;;15.36;100.00
4745;BME280;2386;42.138;24.746;2022-11-18T12:50:53;98366.09;;;15.25;100.00
4745;BME280;2386;42.138;24.746;2022-11-18T12:53:30;98363.72;;;15.18;100.00
4745;BME280;2386;42.138;24.746;2022-11-18T12:55:56;98354.78;;;15.12;100.00
4745;BME280;2386;42.138;24.746;2022-11-18T12:58:23;98345.53;;;15.08;100.00
4745;BME280;2386;42.138;24.746;2022-11-18T13:00:49;98352.03;;;15.12;100.00
4745;BME280;2386;42.138;24.746;2022-11-18T13:03:25;98365.47;;;15.09;100.00
4745;BME280;2386;42.138;24.746;2022-11-18T13:06:02;98364.94;;;15.07;100.00
4745;BME280;2386;42.138;24.746;2022-11-18T13:08:29;98352.81;;;14.94;100.00
4745;BME280;2386;42.138;24.746;2022-11-18T13:11:01;98348.63;;;14.78;100.00
4745;BME280;2386;42.138;24.746;2022-11-18T13:13:50;98356.31;;;14.76;100.00
4745;BME280;2386;42.138;24.746;2022-11-18T13:16:36;98351.91;;;14.80;100.00
4745;BME280;2386;42.138;24.746;2022-11-18T13:19:21;98341.31;;;14.73;100.00
4745;BME280;2386;42.138;24.746;2022-11-18T13:21:56;98344.34;;;14.72;100.00
4745;BME280;2386;42.138;24.746;2022-11-18T13:24:48;98319.34;;;14.60;100.00
4745;BME280;2386;42.138;24.746;2022-11-18T13:29:56;98338.50;;;14.55;100.00
4745;BME280;2386;42.138;24.746;2022-11-18T13:32:26;98328.63;;;14.59;100.00
4745;BME280;2386;42.138;24.746;2022-11-18T13:37:28;98322.53;;;14.43;100.00
4745;BME280;2386;42.138;24.746;2022-11-18T13:39:54;98320.31;;;14.45;100.00
4745;BME280;2386;42.138;24.746;2022-11-18T13:44:57;98313.00;;;14.35;100.00
4745;BME280;2386;42.138;24.746;2022-11-18T13:53:25;98349.03;;;14.32;100.00
4745;BME280;2386;42.138;24.746;2022-11-18T13:56:05;98327.22;;;14.03;100.00
4745;BME280;2386;42.138;24.746;2022-11-18T14:01:00;98328.41;;;14.21;100.00
4745;BME280;2386;42.138;24.746;2022-11-18T14:06:24;98306.94;;;14.14;100.00
4745;BME280;2386;42.138;24.746;2022-11-18T14:08:50;98318.34;;;14.17;100.00
4745;BME280;2386;42.138;24.746;2022-11-18T14:11:40;98317.13;;;14.04;100.00
4745;BME280;2386;42.138;24.746;2022-11-18T14:14:07;98324.66;;;14.12;100.00
4745;BME280;2386;42.138;24.746;2022-11-18T14:16:37;98322.47;;;14.14;100.00
4745;BME280;2386;42.138;24.746;2022-11-18T14:19:04;98325.34;;;13.99;100.00
4745;BME280;2386;42.138;24.746;2022-11-18T14:21:34;98330.31;;;13.92;100.00
4745;BME280;2386;42.138;24.746;2022-11-18T14:24:00;98321.75;;;13.69;100.00
4745;BME280;2386;42.138;24.746;2022-11-18T14:26:32;98324.22;;;13.66;100.00
4745;BME280;2386;42.138;24.746;2022-11-18T14:29:00;98332.81;;;13.39;100.00
4745;BME280;2386;42.138;24.746;2022-11-18T14:31:26;98332.88;;;13.34;100.00
4745;BME280;2386;42.138;24.746;2022-11-18T14:34:24;98327.75;;;13.22;100.00
4745;BME280;2386;42.138;24.746;2022-11-18T14:36:50;98324.78;;;13.13;100.00
4745;BME280;2386;42.138;24.746;2022-11-18T14:39:27;98324.84;;;12.93;100.00
4745;BME280;2386;42.138;24.746;2022-11-18T14:41:53;98310.13;;;12.99;100.00
4745;BME280;2386;42.138;24.746;2022-11-18T14:44:20;98308.50;;;12.98;100.00
4745;BME280;2386;42.138;24.746;2022-11-18T14:46:49;98296.47;;;13.09;100.00
4745;BME280;2386;42.138;24.746;2022-11-18T14:49:19;98310.09;;;13.04;100.00
4745;BME280;2386;42.138;24.746;2022-11-18T14:51:47;98292.16;;;13.03;100.00
4745;BME280;2386;42.138;24.746;2022-11-18T14:54:16;98291.00;;;13.14;100.00